Time;durP1;ratioP1;P1;durP2;ratioP2;P2;SDS_P1;SDS_P2;PMS_P1;PMS_P2;Temp;Humidity;BMP_temperature;BMP_pressure;BME280_temperature;BME280_humidity;BME280_pressure;Samples;Min_cycle;Max_cycle;Signal;HPM_P1;HPM_P2
2023/11/27 00:01:16;;;;;;;17.83;9.20;;;5.80;96.70;;;;;;4843608;29;20122;-69
2023/11/27 00:03:44;;;;;;;15.80;9.40;;;5.80;96.70;;;;;;4846471;29;20042;-69
2023/11/27 00:06:12;;;;;;;19.77;11.15;;;5.80;96.70;;;;;;4839692;29;20150;-68
2023/11/27 00:08:40;;;;;;;15.80;9.70;;;5.90;96.70;;;;;;4837864;29;20057;-69
2023/11/27 00:11:09;;;;;;;18.38;10.68;;;5.90;96.70;;;;;;4840628;29;20049;-68
2023/11/27 00:13:38;;;;;;;15.25;10.00;;;5.80;96.70;;;;;;4841906;29;20519;-67
2023/11/27 00:16:07;;;;;;;15.93;10.30;;;5.80;96.70;;;;;;4842116;29;20513;-68
2023/11/27 00:18:37;;;;;;;19.55;10.73;;;5.80;96.70;;;;;;4836909;29;20087;-68
2023/11/27 00:21:05;;;;;;;20.73;11.45;;;5.90;96.70;;;;;;4839735;29;20262;-69
2023/11/27 00:23:32;;;;;;;17.65;10.50;;;5.90;96.70;;;;;;4842390;29;20085;-69
2023/11/27 00:26:00;;;;;;;18.58;10.90;;;5.90;96.70;;;;;;4845279;29;20046;-69
2023/11/27 00:28:28;;;;;;;18.25;11.13;;;5.80;96.70;;;;;;4845884;29;20046;-69
2023/11/27 00:30:58;;;;;;;19.50;11.50;;;5.90;96.70;;;;;;4837878;29;20495;-70
2023/11/27 00:33:26;;;;;;;15.07;10.90;;;6.00;96.70;;;;;;4838032;29;20441;-69
2023/11/27 00:35:54;;;;;;;15.90;11.20;;;6.10;96.70;;;;;;4837063;29;20061;-69
2023/11/27 00:38:22;;;;;;;16.05;9.85;;;6.00;96.70;;;;;;4837363;29;20106;-69
2023/11/27 00:40:50;;;;;;;18.08;10.75;;;6.00;96.70;;;;;;4844134;29;20053;-69
2023/11/27 00:43:18;;;;;;;16.75;9.35;;;5.90;96.70;;;;;;4836834;29;20443;-70
2023/11/27 00:45:46;;;;;;;12.35;7.35;;;5.60;96.70;;;;;;4862958;29;20680;-69
2023/11/27 00:48:15;;;;;;;15.25;8.15;;;5.50;96.70;;;;;;4859799;29;20057;-69
2023/11/27 00:50:43;;;;;;;14.38;7.63;;;5.60;96.70;;;;;;4856766;29;20053;-70
2023/11/27 00:53:11;;;;;;;12.90;7.72;;;5.60;96.70;;;;;;4856235;29;20044;-70
2023/11/27 00:55:39;;;;;;;12.07;8.15;;;5.80;96.70;;;;;;4838128;29;20122;-69
2023/11/27 00:58:07;;;;;;;10.48;7.65;;;6.00;96.70;;;;;;4854647;29;20099;-69
2023/11/27 01:00:37;;;;;;;11.38;7.15;;;6.10;96.70;;;;;;4856019;29;20105;-70
2023/11/27 01:03:04;;;;;;;12.43;7.30;;;6.20;96.70;;;;;;4849384;29;20041;-69
2023/11/27 01:05:34;;;;;;;12.32;8.10;;;6.10;96.70;;;;;;4842182;29;20064;-70
2023/11/27 01:08:02;;;;;;;14.40;8.38;;;6.20;96.70;;;;;;4862732;29;20046;-70
2023/11/27 01:10:31;;;;;;;14.98;8.38;;;6.30;96.70;;;;;;4859037;29;20538;-67
2023/11/27 01:12:59;;;;;;;14.45;8.60;;;6.30;96.70;;;;;;4860709;29;20703;-68
2023/11/27 01:15:27;;;;;;;14.23;9.23;;;6.30;96.70;;;;;;4844327;29;20642;-70
2023/11/27 01:17:55;;;;;;;13.20;8.57;;;6.30;96.70;;;;;;4874624;29;20037;-69
2023/11/27 01:20:23;;;;;;;13.40;8.88;;;6.20;96.70;;;;;;4867768;29;20049;-69
2023/11/27 01:22:52;;;;;;;12.20;8.35;;;6.20;96.70;;;;;;4862353;29;20041;-70
2023/11/27 01:25:21;;;;;;;14.07;8.82;;;6.20;96.70;;;;;;4844144;29;20409;-70
2023/11/27 01:27:49;;;;;;;13.82;8.27;;;6.20;96.70;;;;;;4866162;29;20105;-69
2023/11/27 01:30:18;;;;;;;14.15;8.52;;;6.20;96.70;;;;;;4850878;29;20065;-69
2023/11/27 01:32:47;;;;;;;15.65;9.82;;;6.20;96.70;;;;;;4859288;29;20158;-69
2023/11/27 01:35:15;;;;;;;17.38;9.68;;;6.20;96.70;;;;;;4864236;29;20546;-70
2023/11/27 01:37:43;;;;;;;15.18;10.35;;;6.20;96.70;;;;;;4865007;29;20057;-69
2023/11/27 01:40:12;;;;;;;15.93;9.55;;;6.10;96.70;;;;;;4866087;29;20052;-70
2023/11/27 01:42:40;;;;;;;13.77;10.00;;;6.10;96.70;;;;;;4852140;29;20576;-70
2023/11/27 01:45:09;;;;;;;16.10;10.05;;;6.20;96.70;;;;;;4844341;29;20490;-69
2023/11/27 01:47:38;;;;;;;16.52;10.13;;;6.20;96.70;;;;;;4845720;29;20146;-69
2023/11/27 01:50:09;;;;;;;14.25;9.38;;;6.20;96.70;;;;;;4831068;29;20041;-70
2023/11/27 01:52:39;;;;;;;14.45;9.52;;;6.30;96.70;;;;;;4854101;29;20102;-67
2023/11/27 01:55:11;;;;;;;15.15;9.32;;;6.30;96.70;;;;;;4824546;29;20136;-69
2023/11/27 01:57:41;;;;;;;14.27;9.63;;;6.30;96.70;;;;;;4838376;29;20093;-70
2023/11/27 02:00:11;;;;;;;14.52;9.73;;;6.20;96.70;;;;;;4840066;29;20044;-70
2023/11/27 02:02:45;;;;;;;17.35;9.90;;;6.20;96.70;;;;;;4852866;29;20843;-70
2023/11/27 02:05:13;;;;;;;16.35;9.95;;;6.20;96.70;;;;;;4847185;29;20554;-68
2023/11/27 02:07:42;;;;;;;14.88;9.32;;;6.10;96.70;;;;;;4839065;29;20053;-69
2023/11/27 02:10:11;;;;;;;13.32;8.75;;;6.10;96.70;;;;;;4835220;29;20120;-70
2023/11/27 02:12:41;;;;;;;13.73;8.77;;;6.10;96.70;;;;;;4849502;29;20050;-70
2023/11/27 02:15:10;;;;;;;11.18;7.95;;;6.10;96.70;;;;;;4848739;29;20714;-70
2023/11/27 02:17:38;;;;;;;12.38;8.30;;;6.10;96.70;;;;;;4852994;29;20053;-69
2023/11/27 02:20:07;;;;;;;11.23;7.85;;;6.10;96.70;;;;;;4855025;29;20061;-70
2023/11/27 02:22:35;;;;;;;15.93;9.15;;;6.20;96.70;;;;;;4852585;29;20408;-70
2023/11/27 02:25:06;;;;;;;13.52;8.70;;;6.20;96.70;;;;;;4847135;29;20054;-70
2023/11/27 02:27:35;;;;;;;14.80;9.07;;;6.20;96.70;;;;;;4831955;29;20073;-70
2023/11/27 02:30:03;;;;;;;12.20;8.50;;;6.20;96.70;;;;;;4847073;29;20038;-69
2023/11/27 02:32:32;;;;;;;12.20;8.65;;;6.20;96.70;;;;;;4831391;29;20387;-70
2023/11/27 02:35:01;;;;;;;11.18;7.85;;;6.30;96.70;;;;;;4842286;29;20788;-68
2023/11/27 02:37:29;;;;;;;11.13;7.85;;;6.20;96.70;;;;;;4856813;29;20045;-70
2023/11/27 02:39:57;;;;;;;11.75;8.32;;;6.20;96.70;;;;;;4848016;29;20038;-70
2023/11/27 02:42:26;;;;;;;14.98;8.25;;;6.30;96.70;;;;;;4847337;29;20050;-70
2023/11/27 02:44:54;;;;;;;12.15;8.35;;;6.30;96.70;;;;;;4843279;29;20057;-70
2023/11/27 02:47:22;;;;;;;13.75;9.27;;;6.30;96.70;;;;;;4847991;29;20050;-71
2023/11/27 02:49:51;;;;;;;13.43;8.30;;;6.30;96.70;;;;;;4842970;29;20064;-70
2023/11/27 02:52:18;;;;;;;13.65;8.40;;;6.30;96.70;;;;;;4841695;29;20042;-70
2023/11/27 02:54:46;;;;;;;16.02;8.73;;;6.40;96.70;;;;;;4844372;29;20042;-71
2023/11/27 02:57:14;;;;;;;13.98;8.32;;;6.40;96.70;;;;;;4819304;29;20042;-70
2023/11/27 02:59:49;;;;;;;14.43;8.88;;;6.40;96.70;;;;;;4841355;29;20062;-69
2023/11/27 03:02:17;;;;;;;11.43;8.48;;;6.40;96.70;;;;;;4827442;29;20494;-69
2023/11/27 03:04:46;;;;;;;12.13;8.07;;;6.40;96.70;;;;;;4838313;29;20121;-71
2023/11/27 03:07:14;;;;;;;11.05;8.35;;;6.40;96.70;;;;;;4845629;29;20082;-70
2023/11/27 03:09:42;;;;;;;12.57;7.93;;;6.40;96.70;;;;;;4854691;29;20101;-70
2023/11/27 03:12:11;;;;;;;12.93;8.05;;;6.50;96.70;;;;;;4854580;29;20409;-71
2023/11/27 03:14:39;;;;;;;12.80;8.32;;;6.50;96.70;;;;;;4833883;29;20058;-71
2023/11/27 03:17:09;;;;;;;13.50;7.65;;;6.50;96.70;;;;;;4846793;29;20054;-70
2023/11/27 03:19:37;;;;;;;11.80;7.95;;;6.50;96.70;;;;;;4845898;29;20054;-71
2023/11/27 03:22:15;;;;;;;11.90;8.15;;;6.40;96.70;;;;;;4846725;29;20397;-70
2023/11/27 03:24:43;;;;;;;11.70;8.30;;;6.40;96.70;;;;;;4829338;29;20136;-71
2023/11/27 03:27:12;;;;;;;12.27;7.65;;;6.40;96.70;;;;;;4849942;29;20467;-71
2023/11/27 03:29:40;;;;;;;11.77;7.88;;;6.40;96.70;;;;;;4850190;29;20038;-70
2023/11/27 03:32:09;;;;;;;10.90;7.80;;;6.40;96.70;;;;;;4845178;29;20093;-71
2023/11/27 03:34:38;;;;;;;11.68;7.82;;;6.40;96.70;;;;;;4835058;29;20479;-70
2023/11/27 03:37:07;;;;;;;13.10;8.00;;;6.40;96.70;;;;;;4845831;29;20060;-71
2023/11/27 03:39:35;;;;;;;13.52;8.63;;;6.50;96.70;;;;;;4844958;29;20045;-71
2023/11/27 03:42:03;;;;;;;13.02;8.15;;;6.40;96.70;;;;;;4845675;29;20050;-67
2023/11/27 03:44:31;;;;;;;10.48;7.55;;;6.40;96.70;;;;;;4837927;29;20802;-70
2023/11/27 03:46:59;;;;;;;11.57;8.25;;;6.40;96.70;;;;;;4846554;29;20414;-71
2023/11/27 03:49:28;;;;;;;13.27;8.25;;;6.40;96.70;;;;;;4853098;29;20042;-68
2023/11/27 03:51:56;;;;;;;11.30;8.05;;;6.40;96.70;;;;;;4838669;29;20116;-70
2023/11/27 03:54:24;;;;;;;11.77;7.43;;;6.30;96.70;;;;;;4849704;29;20073;-70
2023/11/27 03:56:52;;;;;;;11.20;7.28;;;6.30;96.70;;;;;;4842066;29;20049;-70
2023/11/27 03:59:20;;;;;;;13.07;8.13;;;6.30;96.70;;;;;;4847864;29;20049;-70
2023/11/27 04:01:49;;;;;;;13.15;7.75;;;6.30;96.70;;;;;;4834653;29;20441;-69
2023/11/27 04:04:18;;;;;;;11.10;7.53;;;6.20;96.70;;;;;;4836927;29;20056;-71
2023/11/27 04:06:47;;;;;;;12.98;7.95;;;6.20;96.70;;;;;;4838849;29;20073;-70
2023/11/27 04:09:20;;;;;;;9.68;7.20;;;6.20;96.70;;;;;;4841599;29;20042;-69
2023/11/27 04:11:49;;;;;;;13.60;8.30;;;6.10;96.70;;;;;;4839790;29;20042;-71
2023/11/27 04:14:18;;;;;;;12.52;8.25;;;6.10;96.70;;;;;;4841614;29;20034;-70
2023/11/27 04:16:46;;;;;;;12.48;8.30;;;6.10;96.70;;;;;;4845117;29;20046;-69
2023/11/27 04:19:15;;;;;;;11.85;8.20;;;6.00;96.70;;;;;;4854883;29;20510;-70
2023/11/27 04:21:43;;;;;;;12.73;8.32;;;6.00;96.70;;;;;;4845776;29;20066;-69
2023/11/27 04:24:12;;;;;;;12.93;7.60;;;6.00;96.70;;;;;;4850800;29;20049;-70
2023/11/27 04:26:42;;;;;;;11.10;7.75;;;6.00;96.70;;;;;;4852895;29;20131;-71
2023/11/27 04:29:09;;;;;;;12.15;7.65;;;6.00;96.70;;;;;;4854294;29;20073;-71
2023/11/27 04:31:38;;;;;;;10.43;7.88;;;6.00;96.70;;;;;;4846105;29;20058;-70
2023/11/27 04:34:07;;;;;;;11.43;7.28;;;6.00;96.70;;;;;;4849270;29;20395;-71
2023/11/27 04:36:35;;;;;;;13.00;8.02;;;6.00;96.70;;;;;;4845849;29;20518;-69
2023/11/27 04:39:03;;;;;;;12.35;8.30;;;6.10;96.70;;;;;;4840556;29;20134;-69
2023/11/27 04:41:33;;;;;;;12.65;8.32;;;6.10;96.70;;;;;;4848960;29;20367;-71
2023/11/27 04:44:01;;;;;;;13.45;8.18;;;6.10;96.70;;;;;;4848262;29;20114;-71
2023/11/27 04:46:29;;;;;;;10.02;7.68;;;6.10;96.70;;;;;;4844216;29;20049;-70
2023/11/27 04:48:57;;;;;;;11.57;8.02;;;6.10;96.70;;;;;;4850438;29;20073;-71
2023/11/27 04:51:25;;;;;;;11.43;8.23;;;6.20;96.70;;;;;;4849597;29;20045;-70
2023/11/27 04:53:53;;;;;;;9.50;7.10;;;6.20;96.70;;;;;;4842536;29;20054;-70
2023/11/27 04:56:21;;;;;;;10.20;7.85;;;6.20;96.70;;;;;;4849816;29;20049;-71
2023/11/27 04:58:50;;;;;;;11.80;8.20;;;6.20;96.70;;;;;;4843628;29;20062;-69
2023/11/27 05:01:18;;;;;;;14.15;8.25;;;6.20;96.70;;;;;;4858202;29;20397;-71
2023/11/27 05:03:46;;;;;;;13.50;8.25;;;6.20;96.70;;;;;;4844983;29;20061;-71
2023/11/27 05:06:15;;;;;;;12.45;7.63;;;6.20;96.70;;;;;;4842144;29;20170;-70
2023/11/27 05:08:45;;;;;;;11.70;7.13;;;6.30;96.70;;;;;;4852521;29;20097;-69
2023/11/27 05:11:19;;;;;;;9.82;7.22;;;6.30;96.70;;;;;;4840062;29;20826;-71
2023/11/27 05:13:49;;;;;;;12.55;8.00;;;6.30;96.70;;;;;;4840713;29;20058;-70
2023/11/27 05:16:18;;;;;;;12.77;7.88;;;6.30;96.70;;;;;;4845093;29;20037;-69
2023/11/27 05:18:46;;;;;;;10.30;7.22;;;6.30;96.70;;;;;;4843429;29;20133;-69
2023/11/27 05:21:14;;;;;;;10.85;7.25;;;6.30;96.70;;;;;;4856125;29;20048;-69
2023/11/27 05:23:43;;;;;;;10.85;7.13;;;6.30;96.70;;;;;;4841074;29;20747;-70
2023/11/27 05:26:11;;;;;;;9.65;7.25;;;6.30;96.70;;;;;;4848033;29;20050;-69
2023/11/27 05:28:42;;;;;;;12.90;7.30;;;6.30;96.70;;;;;;4852837;29;20124;-69
2023/11/27 05:31:14;;;;;;;10.90;7.45;;;6.30;96.70;;;;;;4843440;29;20053;-70
2023/11/27 05:33:43;;;;;;;12.10;7.97;;;6.30;96.70;;;;;;4848093;29;20049;-70
2023/11/27 05:36:12;;;;;;;9.48;7.60;;;6.30;96.70;;;;;;4848282;29;20060;-70
2023/11/27 05:38:40;;;;;;;9.93;7.65;;;6.40;96.70;;;;;;4843235;29;20046;-70
2023/11/27 05:41:11;;;;;;;10.95;7.10;;;6.40;96.70;;;;;;4845821;29;20604;-69
2023/11/27 05:43:40;;;;;;;10.10;7.00;;;6.40;96.70;;;;;;4851187;29;20050;-69
2023/11/27 05:46:10;;;;;;;11.05;7.97;;;6.40;96.70;;;;;;4848915;29;20550;-69
2023/11/27 05:48:40;;;;;;;9.20;6.60;;;6.40;96.70;;;;;;4840915;29;20049;-70
2023/11/27 05:51:08;;;;;;;10.82;7.28;;;6.30;96.70;;;;;;4851297;29;20149;-69
2023/11/27 05:53:37;;;;;;;9.68;6.97;;;6.40;96.70;;;;;;4844469;29;20074;-69
2023/11/27 05:56:08;;;;;;;10.10;7.13;;;6.30;96.70;;;;;;4840638;29;20102;-68
2023/11/27 05:58:36;;;;;;;10.25;7.28;;;6.30;96.70;;;;;;4847990;29;20053;-69
2023/11/27 06:01:05;;;;;;;9.13;6.60;;;6.30;96.70;;;;;;4840650;29;20038;-70
2023/11/27 06:03:36;;;;;;;11.43;7.15;;;6.30;96.70;;;;;;4848745;29;20056;-70
2023/11/27 06:06:07;;;;;;;11.95;6.45;;;6.30;96.70;;;;;;4844203;29;20514;-68
2023/11/27 06:08:35;;;;;;;8.60;5.90;;;6.30;96.70;;;;;;4839934;29;20129;-70
2023/11/27 06:11:04;;;;;;;12.10;7.07;;;6.30;96.70;;;;;;4839223;29;20083;-69
2023/11/27 06:13:33;;;;;;;11.80;6.53;;;6.30;96.70;;;;;;4840205;29;20697;-69
2023/11/27 06:16:02;;;;;;;8.98;5.80;;;6.30;96.70;;;;;;4831098;29;20456;-69
2023/11/27 06:18:30;;;;;;;9.32;6.50;;;6.30;96.70;;;;;;4839718;29;20495;-68
2023/11/27 06:20:58;;;;;;;8.90;6.00;;;6.30;96.70;;;;;;4839398;29;20125;-69
2023/11/27 06:23:28;;;;;;;8.00;6.03;;;6.30;96.70;;;;;;4848696;29;20463;-69
2023/11/27 06:25:56;;;;;;;8.95;6.10;;;6.30;96.70;;;;;;4840371;29;20053;-70
2023/11/27 06:28:25;;;;;;;10.85;6.28;;;6.30;96.70;;;;;;4847177;29;20130;-69
2023/11/27 06:30:54;;;;;;;9.32;5.57;;;6.30;96.70;;;;;;4853035;29;20494;-72
2023/11/27 06:33:22;;;;;;;9.95;6.32;;;6.30;96.70;;;;;;4854521;29;20078;-72
2023/11/27 06:35:51;;;;;;;11.80;6.82;;;6.30;96.70;;;;;;4849798;29;20069;-72
2023/11/27 06:38:19;;;;;;;8.32;6.25;;;6.30;96.70;;;;;;4841235;29;20524;-72
2023/11/27 06:40:49;;;;;;;8.63;5.93;;;6.30;96.70;;;;;;4840516;29;20606;-73
2023/11/27 06:43:17;;;;;;;10.52;6.15;;;6.30;96.70;;;;;;4847022;29;20160;-72
2023/11/27 06:45:45;;;;;;;9.65;6.05;;;6.30;96.70;;;;;;4846109;29;20049;-72
2023/11/27 06:48:14;;;;;;;10.40;5.75;;;6.30;96.70;;;;;;4858156;29;20072;-71
2023/11/27 06:50:42;;;;;;;9.00;5.50;;;6.30;96.70;;;;;;4858273;29;20048;-72
2023/11/27 06:53:10;;;;;;;9.45;5.97;;;6.30;96.70;;;;;;4849259;29;20130;-71
2023/11/27 06:55:39;;;;;;;7.93;5.30;;;6.30;96.70;;;;;;4850128;29;20056;-72
2023/11/27 06:58:09;;;;;;;8.70;5.90;;;6.30;96.70;;;;;;4843711;29;20072;-69
2023/11/27 07:00:37;;;;;;;10.15;5.78;;;6.30;96.70;;;;;;4852562;29;20041;-70
2023/11/27 07:03:05;;;;;;;11.18;5.95;;;6.40;96.70;;;;;;4840186;29;20050;-70
2023/11/27 07:05:34;;;;;;;7.53;5.85;;;6.40;96.70;;;;;;4838738;29;20058;-69
2023/11/27 07:08:03;;;;;;;7.95;6.20;;;6.40;96.70;;;;;;4846217;29;20058;-69
2023/11/27 07:10:32;;;;;;;9.05;6.35;;;6.40;96.70;;;;;;4837961;29;20042;-68
2023/11/27 07:13:00;;;;;;;11.35;6.68;;;6.50;96.70;;;;;;4842222;29;20045;-68
2023/11/27 07:15:30;;;;;;;9.18;5.93;;;6.50;96.70;;;;;;4849811;29;20046;-69
2023/11/27 07:17:59;;;;;;;9.80;7.00;;;6.50;96.70;;;;;;4839747;29;20131;-70
2023/11/27 07:20:45;;;;;;;11.07;7.65;;;6.50;96.70;;;;;;4832449;29;20138;-69
2023/11/27 07:23:14;;;;;;;12.77;7.95;;;6.60;96.70;;;;;;4846671;29;20148;-68
2023/11/27 07:25:43;;;;;;;13.30;8.65;;;6.60;96.70;;;;;;4824781;29;20042;-69
2023/11/27 07:28:12;;;;;;;16.50;10.40;;;6.60;96.70;;;;;;4844705;29;20038;-69
2023/11/27 07:30:43;;;;;;;20.85;12.40;;;6.60;96.70;;;;;;4836780;29;20046;-69
2023/11/27 07:33:11;;;;;;;20.98;12.82;;;6.60;96.70;;;;;;4841949;29;20056;-69
2023/11/27 07:35:39;;;;;;;24.80;14.77;;;6.60;96.70;;;;;;4852746;29;20045;-69
2023/11/27 07:38:07;;;;;;;27.13;14.55;;;6.60;96.70;;;;;;4853034;29;20063;-69
2023/11/27 07:40:35;;;;;;;19.38;12.93;;;6.70;96.70;;;;;;4844754;29;20073;-69
2023/11/27 07:43:10;;;;;;;22.10;12.80;;;6.70;96.70;;;;;;4847616;29;20060;-69
2023/11/27 07:45:39;;;;;;;23.45;12.77;;;6.80;96.70;;;;;;4866051;29;20045;-68
2023/11/27 07:48:10;;;;;;;20.38;11.95;;;6.80;96.70;;;;;;4869270;29;20045;-70
2023/11/27 07:50:39;;;;;;;35.50;12.95;;;6.90;96.70;;;;;;4862798;29;20056;-74
2023/11/27 07:53:08;;;;;;;24.80;10.27;;;7.00;96.70;;;;;;4865678;29;20045;-72
2023/11/27 07:55:37;;;;;;;17.50;8.68;;;7.00;96.70;;;;;;4854660;29;20162;-71
2023/11/27 07:58:05;;;;;;;14.95;9.65;;;7.10;96.70;;;;;;4866556;29;20037;-72
2023/11/27 08:00:33;;;;;;;14.98;9.23;;;7.20;96.70;;;;;;4861383;29;20398;-69
2023/11/27 08:03:01;;;;;;;14.68;9.00;;;7.20;96.70;;;;;;4860367;29;20037;-72
2023/11/27 08:05:31;;;;;;;17.10;9.10;;;7.30;96.70;;;;;;4863384;29;20054;-71
2023/11/27 08:07:59;;;;;;;15.18;9.10;;;7.40;96.70;;;;;;4858986;29;20103;-72
2023/11/27 08:10:28;;;;;;;17.10;9.18;;;7.40;96.70;;;;;;4863723;29;20084;-72
2023/11/27 08:12:57;;;;;;;14.55;8.80;;;7.50;96.70;;;;;;4868216;29;20044;-72
2023/11/27 08:15:25;;;;;;;12.13;8.13;;;7.60;96.70;;;;;;4862207;29;20049;-76
2023/11/27 08:17:55;;;;;;;14.23;9.18;;;7.70;96.70;;;;;;4864610;29;20118;-70
2023/11/27 08:20:28;;;;;;;13.25;8.23;;;7.70;96.70;;;;;;4857604;29;20124;-67
2023/11/27 08:22:59;;;;;;;25.58;10.23;;;7.80;96.70;;;;;;4865301;29;20367;-70
2023/11/27 08:25:28;;;;;;;16.88;9.68;;;7.90;96.70;;;;;;4863384;29;20061;-70
2023/11/27 08:27:58;;;;;;;13.27;8.27;;;7.90;96.70;;;;;;4857751;29;20136;-70
2023/11/27 08:30:29;;;;;;;12.52;8.00;;;8.00;96.70;;;;;;4865005;29;20048;-70
2023/11/27 08:32:58;;;;;;;9.68;6.35;;;8.10;96.70;;;;;;4866785;29;20454;-70
2023/11/27 08:35:26;;;;;;;25.48;9.70;;;8.20;96.70;;;;;;4865348;29;20077;-72
2023/11/27 08:37:55;;;;;;;12.02;6.95;;;8.30;96.70;;;;;;4861365;29;20042;-70
2023/11/27 08:40:25;;;;;;;17.77;8.05;;;8.50;96.70;;;;;;4860018;29;20052;-68
2023/11/27 08:42:53;;;;;;;8.90;6.40;;;8.50;96.70;;;;;;4842452;29;20066;-67
2023/11/27 08:45:21;;;;;;;9.80;7.10;;;8.60;96.70;;;;;;4844767;29;20050;-68
2023/11/27 08:47:52;;;;;;;11.85;7.82;;;8.60;96.70;;;;;;4837081;29;20049;-69
2023/11/27 08:50:27;;;;;;;11.77;7.05;;;8.60;96.70;;;;;;4845077;29;20046;-68
2023/11/27 08:52:57;;;;;;;11.00;7.20;;;8.60;96.70;;;;;;4839335;29;20045;-69
2023/11/27 08:55:31;;;;;;;9.18;6.53;;;8.60;96.70;;;;;;4844224;29;20064;-67
2023/11/27 08:58:03;;;;;;;12.63;6.68;;;8.70;96.70;;;;;;4841831;29;20042;-74
2023/11/27 09:00:35;;;;;;;8.60;6.68;;;8.80;96.70;;;;;;4839677;29;20046;-79
2023/11/27 09:03:04;;;;;;;10.68;7.15;;;8.80;96.70;;;;;;4838729;29;20490;-69
2023/11/27 09:05:33;;;;;;;17.15;7.32;;;8.90;96.70;;;;;;4844280;29;20046;-70
2023/11/27 09:08:05;;;;;;;9.80;6.82;;;8.90;96.70;;;;;;4842563;29;20109;-72
2023/11/27 09:10:36;;;;;;;12.00;6.07;;;8.90;96.70;;;;;;4837036;29;20049;-72
2023/11/27 09:13:05;;;;;;;13.30;6.20;;;9.00;96.70;;;;;;4849020;29;20049;-70
2023/11/27 09:18:24;;;;;;;12.88;6.85;;;9.10;96.70;;;;;;5014306;23;20068;-71
2023/11/27 09:20:52;;;;;;;14.27;6.63;;;9.10;96.70;;;;;;4886010;29;20112;-71
2023/11/27 09:23:21;;;;;;;11.18;6.45;;;9.10;96.70;;;;;;4891485;29;20036;-73
2023/11/27 09:25:51;;;;;;;20.23;7.32;;;9.20;96.70;;;;;;4891429;29;20039;-73
2023/11/27 09:28:19;;;;;;;10.73;6.68;;;9.20;96.70;;;;;;4894239;29;20066;-72
2023/11/27 09:30:48;;;;;;;12.45;6.50;;;9.30;96.70;;;;;;4889492;29;20041;-72
2023/11/27 09:33:16;;;;;;;9.25;6.20;;;9.40;96.70;;;;;;4877951;29;20065;-72
2023/11/27 09:35:44;;;;;;;9.10;6.38;;;9.40;96.70;;;;;;4895290;29;20037;-71
2023/11/27 09:38:12;;;;;;;9.57;5.85;;;9.40;96.70;;;;;;4895535;29;20045;-71
2023/11/27 09:40:41;;;;;;;8.70;6.45;;;9.40;96.70;;;;;;4894625;29;20055;-70
2023/11/27 09:43:12;;;;;;;9.68;6.60;;;9.40;96.70;;;;;;4894597;29;20068;-70
2023/11/27 09:45:42;;;;;;;8.50;6.55;;;9.50;96.70;;;;;;4895125;29;20140;-70
2023/11/27 09:48:12;;;;;;;8.07;6.55;;;9.50;96.70;;;;;;4893468;29;20120;-69
2023/11/27 09:50:45;;;;;;;9.45;6.45;;;9.60;96.70;;;;;;4874658;29;20667;-68
2023/11/27 09:53:17;;;;;;;10.50;6.47;;;9.70;96.70;;;;;;4895072;29;20060;-70
2023/11/27 09:55:49;;;;;;;8.07;5.65;;;9.70;96.70;;;;;;4886799;29;20045;-69
2023/11/27 09:58:21;;;;;;;8.73;5.00;;;9.80;96.70;;;;;;4895136;29;20095;-70
2023/11/27 10:00:50;;;;;;;10.73;5.75;;;9.80;96.70;;;;;;4894728;29;20044;-69
2023/11/27 10:03:19;;;;;;;10.60;5.38;;;9.80;96.70;;;;;;4894977;29;20085;-69
2023/11/27 10:05:49;;;;;;;10.27;6.60;;;9.80;96.70;;;;;;4894179;29;20083;-69
2023/11/27 10:08:18;;;;;;;10.60;5.93;;;9.80;96.70;;;;;;4894977;29;20061;-69
2023/11/27 10:10:47;;;;;;;8.45;5.68;;;9.80;96.70;;;;;;4894600;29;20048;-70
2023/11/27 10:13:18;;;;;;;8.45;5.85;;;9.80;96.70;;;;;;4895348;29;20136;-69
2023/11/27 10:16:09;;;;;;;8.93;5.47;;;9.80;96.70;;;;;;4894342;29;20068;-69
2023/11/27 10:18:37;;;;;;;7.50;4.82;;;9.70;96.70;;;;;;4893826;29;20067;-69
2023/11/27 10:21:13;;;;;;;8.30;5.70;;;9.70;96.70;;;;;;4894775;29;20048;-70
2023/11/27 10:23:42;;;;;;;8.68;7.28;;;9.70;96.70;;;;;;4889589;29;20044;-70
2023/11/27 10:26:10;;;;;;;12.50;9.20;;;9.70;96.70;;;;;;4892713;29;20053;-71
2023/11/27 10:28:41;;;;;;;11.93;8.48;;;9.70;96.70;;;;;;4882235;29;20117;-72
2023/11/27 10:31:11;;;;;;;11.43;8.27;;;9.70;96.70;;;;;;4891541;29;20049;-72
2023/11/27 10:33:40;;;;;;;11.57;7.80;;;9.70;96.70;;;;;;4891114;29;20041;-72
2023/11/27 10:36:09;;;;;;;9.23;6.00;;;9.70;96.70;;;;;;4887882;29;20046;-73
2023/11/27 10:38:38;;;;;;;7.60;5.28;;;9.70;96.70;;;;;;4892763;29;20072;-74
2023/11/27 10:41:07;;;;;;;10.98;5.45;;;9.70;96.70;;;;;;4889062;29;20037;-74
2023/11/27 10:43:37;;;;;;;8.35;5.10;;;9.70;96.70;;;;;;4889819;29;20413;-73
2023/11/27 10:46:07;;;;;;;9.98;6.45;;;9.80;96.70;;;;;;4893782;29;20493;-69
2023/11/27 10:48:39;;;;;;;9.02;6.20;;;9.80;96.70;;;;;;4885230;29;20136;-73
2023/11/27 10:51:15;;;;;;;6.35;4.60;;;9.90;96.70;;;;;;4888337;29;20449;-74
2023/11/27 10:53:46;;;;;;;7.18;4.45;;;9.90;96.70;;;;;;4890205;29;20762;-73
2023/11/27 10:56:16;;;;;;;8.68;4.30;;;9.80;96.70;;;;;;4893284;29;20132;-71
2023/11/27 10:58:46;;;;;;;7.05;4.22;;;9.90;96.70;;;;;;4892644;29;20400;-72
2023/11/27 11:01:26;;;;;;;6.45;4.75;;;9.90;96.70;;;;;;4876517;29;20052;-73
2023/11/27 11:04:04;;;;;;;6.82;4.80;;;9.90;96.70;;;;;;4886821;29;20048;-75
2023/11/27 11:06:33;;;;;;;6.30;4.18;;;10.00;96.70;;;;;;4886099;29;20044;-72
2023/11/27 11:09:07;;;;;;;10.98;6.95;;;10.00;96.70;;;;;;4893430;29;20044;-75
2023/11/27 11:11:36;;;;;;;16.40;7.63;;;10.00;96.70;;;;;;4893256;29;20048;-74
2023/11/27 11:14:04;;;;;;;15.07;9.23;;;10.00;96.70;;;;;;4893518;29;20045;-74
2023/11/27 11:16:42;;;;;;;15.07;9.27;;;10.00;96.70;;;;;;4892263;29;20048;-74
2023/11/27 11:19:21;;;;;;;13.70;8.73;;;9.90;96.70;;;;;;4865693;29;20044;-75
2023/11/27 11:22:01;;;;;;;13.07;7.90;;;10.00;96.70;;;;;;4875195;29;20420;-74
2023/11/27 11:24:39;;;;;;;13.13;7.53;;;10.20;96.70;;;;;;4871978;29;20124;-74
2023/11/27 11:27:17;;;;;;;12.18;6.80;;;10.20;96.70;;;;;;4869273;29;20057;-75
2023/11/27 11:29:49;;;;;;;8.93;5.93;;;10.30;96.70;;;;;;4874116;29;20101;-75
2023/11/27 11:32:17;;;;;;;8.68;5.57;;;10.30;96.70;;;;;;4867926;29;20081;-75
2023/11/27 11:34:58;;;;;;;9.63;5.38;;;10.30;96.70;;;;;;4870991;29;20100;-75
2023/11/27 11:37:29;;;;;;;11.02;5.82;;;10.20;96.70;;;;;;4874658;29;20068;-75
2023/11/27 11:39:58;;;;;;;9.20;4.68;;;10.20;96.70;;;;;;4874296;29;20061;-76
2023/11/27 11:42:32;;;;;;;6.95;5.15;;;10.10;96.70;;;;;;4875127;29;20049;-74
2023/11/27 11:45:16;;;;;;;11.40;4.70;;;10.10;96.70;;;;;;4868619;29;20088;-74
2023/11/27 11:47:51;;;;;;;22.20;6.10;;;10.10;96.70;;;;;;4873981;29;20062;-74
2023/11/27 11:50:28;;;;;;;7.75;5.35;;;10.10;96.70;;;;;;4874185;29;20063;-74
2023/11/27 11:52:57;;;;;;;;;;;10.10;96.70;;;;;;4875511;29;20129;-74
2023/11/27 11:55:30;;;;;;;9.20;6.30;;;10.10;96.70;;;;;;4874513;29;19931;-74
2023/11/27 11:58:03;;;;;;;10.52;7.22;;;10.10;96.70;;;;;;4874283;29;20044;-74
2023/11/27 12:00:42;;;;;;;12.43;8.07;;;10.10;96.70;;;;;;4867085;29;20040;-74
2023/11/27 12:03:17;;;;;;;10.05;6.85;;;10.10;96.70;;;;;;4874657;29;20059;-74
2023/11/27 12:05:50;;;;;;;11.10;7.93;;;10.00;96.70;;;;;;4873961;29;20041;-73
2023/11/27 12:08:19;;;;;;;10.43;7.15;;;10.10;96.70;;;;;;4874298;29;20041;-74
2023/11/27 12:10:48;;;;;;;13.80;7.85;;;10.00;96.70;;;;;;4876741;29;20060;-73
2023/11/27 12:13:20;;;;;;;12.02;7.80;;;10.00;96.70;;;;;;4874696;29;20052;-74
2023/11/27 12:15:50;;;;;;;14.23;8.80;;;10.00;96.70;;;;;;4874601;29;20397;-73
2023/11/27 12:18:19;;;;;;;16.90;9.63;;;10.00;96.70;;;;;;4884630;29;20777;-74
2023/11/27 12:20:50;;;;;;;18.17;11.25;;;10.00;96.70;;;;;;4892459;29;20075;-74
2023/11/27 12:23:18;;;;;;;14.23;9.93;;;10.00;96.70;;;;;;4918847;24;20052;-74
2023/11/27 12:25:47;;;;;;;15.20;11.80;;;10.00;96.70;;;;;;4913209;29;20048;-73
2023/11/27 12:28:15;;;;;;;18.48;12.38;;;10.00;96.70;;;;;;4896615;29;20444;-74
2023/11/27 12:30:43;;;;;;;17.48;12.65;;;10.10;96.70;;;;;;4912567;29;20056;-74
2023/11/27 12:33:17;;;;;;;17.63;11.68;;;10.10;96.70;;;;;;4912339;29;20724;-74
2023/11/27 12:35:51;;;;;;;24.08;10.70;;;10.10;96.70;;;;;;4912480;29;20051;-74
2023/11/27 12:38:20;;;;;;;56.10;13.52;;;10.10;96.70;;;;;;4913565;29;20047;-75
2023/11/27 12:40:51;;;;;;;22.60;10.88;;;10.20;96.70;;;;;;4906669;29;20056;-74
2023/11/27 12:43:21;;;;;;;17.92;10.65;;;10.30;96.70;;;;;;4912163;29;20047;-75
2023/11/27 12:45:57;;;;;;;16.23;9.63;;;10.40;96.70;;;;;;4904612;29;20048;-74
2023/11/27 12:48:32;;;;;;;18.58;10.90;;;10.40;96.70;;;;;;4913478;29;20043;-74
2023/11/27 12:51:12;;;;;;;13.05;9.45;;;10.40;96.70;;;;;;4906836;29;20059;-74
2023/11/27 12:53:43;;;;;;;15.10;10.48;;;10.40;96.70;;;;;;4904665;29;20048;-75
2023/11/27 12:56:24;;;;;;;16.67;10.65;;;10.40;96.70;;;;;;4913575;29;20867;-74
2023/11/27 12:58:54;;;;;;;14.37;10.53;;;10.50;96.70;;;;;;4916718;29;20095;-74
2023/11/27 13:01:26;;;;;;;15.38;10.23;;;10.50;96.70;;;;;;4916847;29;20304;-74